Time;durP1;ratioP1;P1;durP2;ratioP2;P2;SDS_P1;SDS_P2;PMS_P1;PMS_P2;Temp;Humidity;BMP_temperature;BMP_pressure;BME280_temperature;BME280_humidity;BME280_pressure;Samples;Min_cycle;Max_cycle;Signal;HPM_P1;HPM_P2
2021/07/25 00:02:23;141662.00;0.47;245.44;0.00;0.00;0.62;;;;;22.00;10.10;;;;;;2256620;61;1348;-90
2021/07/25 00:04:50;413703.00;1.38;713.36;0.00;0.00;0.62;;;;;22.30;9.50;;;;;;2256545;61;1056;-90
2021/07/25 00:07:19;178880.00;0.60;309.56;18589.00;0.06;32.83;;;;;22.60;8.50;;;;;;2256613;61;1006;-89
2021/07/25 00:09:45;179310.00;0.60;310.30;0.00;0.00;0.62;;;;;22.50;8.70;;;;;;2256541;61;1106;-88
2021/07/25 00:12:12;535320.00;1.78;922.66;71851.00;0.24;124.96;;;;;22.40;9.80;;;;;;2256962;61;1321;-87
2021/07/25 00:14:40;385040.00;1.28;664.09;0.00;0.00;0.62;;;;;22.30;9.10;;;;;;2256955;61;1909;-89
2021/07/25 00:17:07;247491.00;0.82;427.64;0.00;0.00;0.62;;;;;22.70;8.10;;;;;;2256971;61;1110;-89
2021/07/25 00:19:35;347528.00;1.16;599.61;0.00;0.00;0.62;;;;;23.10;6.90;;;;;;2257020;61;1049;-89
2021/07/25 00:22:02;184640.00;0.62;319.48;0.00;0.00;0.62;;;;;23.10;7.00;;;;;;2256881;61;1627;-89
2021/07/25 00:24:32;94290.00;0.31;163.71;0.00;0.00;0.62;;;;;23.30;4.90;;;;;;2256956;61;1033;-88
2021/07/25 00:27:00;28707.00;0.10;50.34;0.00;0.00;0.62;;;;;23.70;2.20;;;;;;2256939;61;1147;-89
2021/07/25 00:29:29;377691.00;1.26;651.46;63327.00;0.21;110.23;;;;;23.80;2.70;;;;;;2256923;61;1028;-88
2021/07/25 00:31:58;148170.00;0.49;256.65;11158.00;0.04;19.96;;;;;23.80;1.60;;;;;;2256926;61;1294;-90
2021/07/25 00:34:25;304723.00;1.02;526.04;26437.00;0.09;46.42;;;;;23.80;2.20;;;;;;2256954;61;990;-88
2021/07/25 00:36:53;55025.00;0.18;95.88;0.00;0.00;0.62;;;;;23.80;1.60;;;;;;2256917;61;1934;-89
2021/07/25 00:39:20;104801.00;0.35;181.86;0.00;0.00;0.62;;;;;24.00;2.00;;;;;;2252414;61;921;-88
2021/07/25 00:41:49;180731.00;0.60;312.75;0.00;0.00;0.62;;;;;24.00;1.60;;;;;;2249108;61;1291;-89
2021/07/25 00:44:16;153208.00;0.51;265.34;0.00;0.00;0.62;;;;;24.00;2.00;;;;;;2252464;61;1060;-88
2021/07/25 00:46:46;87439.00;0.29;151.89;0.00;0.00;0.62;;;;;23.90;1.90;;;;;;2252242;61;1046;-88
2021/07/25 00:49:15;151019.00;0.50;261.56;0.00;0.00;0.62;;;;;24.10;2.10;;;;;;2252399;61;1801;-89
2021/07/25 00:51:42;311282.00;1.04;537.31;0.00;0.00;0.62;;;;;24.20;1.00;;;;;;2252453;61;1024;-89
2021/07/25 00:54:09;298461.00;0.99;515.27;0.00;0.00;0.62;;;;;24.00;1.00;;;;;;2252415;61;1434;-89
2021/07/25 00:56:36;123131.00;0.41;213.48;0.00;0.00;0.62;;;;;24.00;1.00;;;;;;2245558;61;1993;-88
2021/07/25 00:59:05;134862.00;0.45;233.71;0.00;0.00;0.62;;;;;24.10;1.00;;;;;;2252482;61;1009;-89
2021/07/25 01:01:32;285682.00;0.95;493.31;0.00;0.00;0.62;;;;;24.00;1.00;;;;;;2244425;61;967;-88
2021/07/25 01:04:17;349465.00;1.16;602.94;0.00;0.00;0.62;;;;;23.80;1.70;;;;;;2244445;61;1426;-88
2021/07/25 01:07:05;113982.00;0.38;197.70;0.00;0.00;0.62;;;;;24.00;1.70;;;;;;2244523;61;999;-90
2021/07/25 01:09:40;113266.00;0.38;196.47;44384.00;0.15;77.47;;;;;24.00;1.00;;;;;;2244490;61;999;-89
2021/07/25 01:12:18;673.00;0.00;1.79;0.00;0.00;0.62;;;;;23.90;1.00;;;;;;2244433;61;1406;-88
2021/07/25 01:14:49;504503.00;1.68;869.58;205253.00;0.68;354.97;;;;;24.20;1.10;;;;;;2248749;61;1594;-88
2021/07/25 01:17:30;253186.00;0.84;437.43;80729.00;0.27;140.30;;;;;24.00;1.20;;;;;;2252383;61;1920;-89
2021/07/25 01:19:58;16722.00;0.06;29.59;0.00;0.00;0.62;;;;;23.80;1.00;;;;;;2255258;61;1127;-89
2021/07/25 01:22:28;188546.00;0.63;326.21;39850.00;0.13;69.63;;;;;23.50;2.30;;;;;;2256771;61;1407;-88
2021/07/25 01:24:55;151527.00;0.51;262.44;0.00;0.00;0.62;;;;;23.50;3.20;;;;;;2256814;61;943;-89
2021/07/25 01:27:28;155714.00;0.52;269.65;0.00;0.00;0.62;;;;;23.70;3.20;;;;;;2256813;61;1017;-89
2021/07/25 01:29:58;206093.00;0.69;356.41;46400.00;0.15;80.96;;;;;23.70;2.80;;;;;;2256802;61;1021;-89
2021/07/25 01:32:27;78643.00;0.26;136.69;0.00;0.00;0.62;;;;;23.70;2.20;;;;;;2256733;61;1463;-89
2021/07/25 01:34:58;284848.00;0.95;491.87;122207.00;0.41;211.89;;;;;23.60;2.30;;;;;;2256756;61;1079;-89
2021/07/25 01:37:27;34982.00;0.12;61.21;0.00;0.00;0.62;;;;;23.60;2.40;;;;;;2256728;61;2023;-91
2021/07/25 01:39:55;32036.00;0.11;56.11;0.00;0.00;0.62;;;;;23.70;2.20;;;;;;2256759;61;1002;-89
2021/07/25 01:42:35;213206.00;0.71;368.65;8927.00;0.03;16.09;;;;;23.90;1.00;;;;;;2256632;61;1735;-92
2021/07/25 01:45:03;74318.00;0.25;129.22;0.00;0.00;0.62;;;;;24.00;2.60;;;;;;2256746;61;991;-91
2021/07/25 01:47:30;59853.00;0.20;104.22;0.00;0.00;0.62;;;;;23.90;2.70;;;;;;2256710;61;1079;-92
2021/07/25 01:49:58;443059.00;1.48;763.84;20727.00;0.07;36.53;;;;;23.80;3.20;;;;;;2256680;61;1727;-90
2021/07/25 01:52:25;142926.00;0.48;247.61;0.00;0.00;0.62;;;;;23.60;3.10;;;;;;2256613;61;1727;-89
2021/07/25 01:54:53;470391.00;1.57;810.86;76947.00;0.26;133.76;;;;;23.80;2.50;;;;;;2256675;61;1131;-91
2021/07/25 01:57:20;183342.00;0.61;317.24;0.00;0.00;0.62;;;;;23.70;2.80;;;;;;2256646;61;1964;-90
2021/07/25 01:59:47;98457.00;0.33;170.91;0.00;0.00;0.62;;;;;23.70;2.90;;;;;;2256637;61;1046;-91
2021/07/25 02:02:14;416878.00;1.39;718.82;27858.00;0.09;48.88;;;;;23.60;2.70;;;;;;2256598;61;1298;-90
2021/07/25 02:04:41;240954.00;0.80;416.39;0.00;0.00;0.62;;;;;23.70;1.40;;;;;;2256613;61;1021;-89
2021/07/25 02:07:10;108928.00;0.36;188.98;0.00;0.00;0.62;;;;;23.70;2.20;;;;;;2256606;61;1697;-91
2021/07/25 02:09:38;102658.00;0.34;178.16;0.00;0.00;0.62;;;;;23.80;1.00;;;;;;2256675;61;1703;-89
2021/07/25 02:12:05;9204.00;0.03;16.57;0.00;0.00;0.62;;;;;23.90;1.80;;;;;;2256544;61;1366;-91
2021/07/25 02:14:32;177183.00;0.59;306.64;0.00;0.00;0.62;;;;;23.90;1.60;;;;;;2256556;61;1226;-90
2021/07/25 02:17:00;87670.00;0.29;152.28;0.00;0.00;0.62;;;;;23.90;2.70;;;;;;2256602;61;1921;-90
2021/07/25 02:19:27;15835.00;0.05;28.06;0.00;0.00;0.62;;;;;23.90;1.00;;;;;;2256574;61;1066;-91
2021/07/25 02:21:55;466087.00;1.55;803.46;31185.00;0.10;54.63;;;;;24.00;1.60;;;;;;2252056;61;1313;-88
2021/07/25 02:24:24;78399.00;0.26;136.27;0.00;0.00;0.62;;;;;24.00;1.90;;;;;;2244168;61;1119;-89
2021/07/25 02:26:52;151430.00;0.50;262.27;0.00;0.00;0.62;;;;;23.80;1.60;;;;;;2244192;61;1085;-90
2021/07/25 02:29:20;0.00;0.00;0.62;0.00;0.00;0.62;;;;;23.50;3.10;;;;;;2236277;62;1073;-91
2021/07/25 02:31:47;1199.00;0.00;2.70;0.00;0.00;0.62;;;;;23.50;3.40;;;;;;2236363;62;1410;-91
2021/07/25 02:34:14;150.00;0.00;0.88;0.00;0.00;0.62;;;;;23.70;2.90;;;;;;2233057;62;1027;-87
2021/07/25 02:36:41;379865.00;1.27;655.19;71150.00;0.24;123.75;;;;;23.70;3.10;;;;;;2236305;62;1999;-89
2021/07/25 02:39:08;321801.00;1.07;555.39;33044.00;0.11;57.85;;;;;23.70;2.10;;;;;;2237417;61;1016;-90
2021/07/25 02:41:38;231440.00;0.77;400.03;0.00;0.00;0.62;;;;;23.60;3.30;;;;;;2245212;61;1768;-91
2021/07/25 02:44:05;32487.00;0.11;56.89;0.00;0.00;0.62;;;;;23.50;4.00;;;;;;2252088;61;1210;-91
2021/07/25 02:46:32;105002.00;0.35;182.21;0.00;0.00;0.62;;;;;23.30;4.40;;;;;;2252667;61;1494;-91
2021/07/25 02:48:59;112228.00;0.37;194.67;0.00;0.00;0.62;;;;;23.20;5.90;;;;;;2256487;61;1127;-92
2021/07/25 02:51:26;198968.00;0.66;344.15;0.00;0.00;0.62;;;;;23.20;4.90;;;;;;2256566;61;910;-90
2021/07/25 02:53:53;420503.00;1.40;725.06;80943.00;0.27;140.67;;;;;23.40;2.50;;;;;;2256500;61;1385;-88
2021/07/25 02:56:20;39175.00;0.13;68.46;0.00;0.00;0.62;;;;;23.40;4.40;;;;;;2256503;61;1911;-89
2021/07/25 02:58:48;159525.00;0.53;276.22;11472.00;0.04;20.50;;;;;23.50;4.20;;;;;;2256509;61;961;-90
2021/07/25 03:01:17;102037.00;0.34;177.09;0.00;0.00;0.62;;;;;23.60;3.40;;;;;;2256483;61;1020;-90
2021/07/25 03:03:44;385010.00;1.28;664.04;97591.00;0.33;169.41;;;;;23.50;3.80;;;;;;2256370;61;1362;-89
2021/07/25 03:06:11;33335.00;0.11;58.36;0.00;0.00;0.62;;;;;23.70;2.50;;;;;;2256438;61;1110;-89
2021/07/25 03:08:38;37886.00;0.13;66.23;0.00;0.00;0.62;;;;;23.70;2.20;;;;;;2256500;61;1008;-88
2021/07/25 03:11:08;124969.00;0.42;216.65;0.00;0.00;0.62;;;;;23.90;1.40;;;;;;2256367;61;1047;-89
2021/07/25 03:13:35;147271.00;0.49;255.10;0.00;0.00;0.62;;;;;23.80;3.10;;;;;;2256476;61;1344;-88
2021/07/25 03:16:05;634494.00;2.11;1093.82;157348.00;0.52;272.47;;;;;23.80;2.50;;;;;;2256434;61;1916;-88
2021/07/25 03:18:33;35365.00;0.12;61.87;0.00;0.00;0.62;;;;;23.50;3.40;;;;;;2256358;61;1702;-89
2021/07/25 03:21:00;93489.00;0.31;162.33;0.00;0.00;0.62;;;;;23.60;2.80;;;;;;2256405;61;1742;-90
2021/07/25 03:23:27;0.00;0.00;0.62;0.00;0.00;0.62;;;;;23.80;1.70;;;;;;2256431;61;1296;-89
2021/07/25 03:25:54;169200.00;0.56;292.89;26033.00;0.09;45.72;;;;;24.00;2.70;;;;;;2252746;61;983;-89
2021/07/25 03:28:21;148228.00;0.49;256.75;24840.00;0.08;43.65;;;;;24.10;1.50;;;;;;2256411;61;1131;-88
2021/07/25 03:30:48;59116.00;0.20;102.95;0.00;0.00;0.62;;;;;24.00;2.00;;;;;;2256458;61;934;-88
2021/07/25 03:33:16;195164.00;0.65;337.60;0.00;0.00;0.62;;;;;24.10;1.40;;;;;;2251898;61;1406;-91
2021/07/25 03:35:43;214404.00;0.71;370.71;0.00;0.00;0.62;;;;;24.30;1.00;;;;;;2243919;61;1916;-89
2021/07/25 03:38:11;443923.00;1.48;765.33;83834.00;0.28;145.66;;;;;24.20;1.00;;;;;;2244059;62;1066;-90
2021/07/25 03:40:41;281966.00;0.94;486.92;77079.00;0.26;133.99;;;;;24.10;1.70;;;;;;2244061;61;1065;-89
2021/07/25 03:43:08;155348.00;0.52;269.02;0.00;0.00;0.62;;;;;24.00;2.10;;;;;;2236093;62;1340;-89
2021/07/25 03:45:35;65748.00;0.22;114.41;0.00;0.00;0.62;;;;;23.90;1.50;;;;;;2236151;62;1128;-89
2021/07/25 03:48:03;0.00;0.00;0.62;0.00;0.00;0.62;;;;;23.90;2.90;;;;;;2236108;62;1071;-89
2021/07/25 03:50:31;0.00;0.00;0.62;0.00;0.00;0.62;;;;;23.90;3.00;;;;;;2237266;62;1294;-88
2021/07/25 03:52:58;178181.00;0.59;308.36;0.00;0.00;0.62;;;;;23.80;2.70;;;;;;2240567;62;1439;-89
2021/07/25 03:55:25;87102.00;0.29;151.30;0.00;0.00;0.62;;;;;23.80;2.70;;;;;;2244011;61;1059;-89
2021/07/25 03:57:53;503430.00;1.68;867.73;173374.00;0.58;300.08;;;;;23.70;3.20;;;;;;2243871;61;1928;-90
2021/07/25 04:00:20;30485.00;0.10;53.42;0.00;0.00;0.62;;;;;23.70;1.60;;;;;;2244429;61;1711;-88
2021/07/25 06:24:56;65086.00;0.22;113.27;0.00;0.00;0.62;;;;;30.40;1.00;;;;;;2490941;41;3522;31
2021/07/25 07:09:02;101903.00;0.34;176.86;0.00;0.00;0.62;;;;;32.10;1.00;;;;;;2410445;56;3198;31
2021/07/25 10:03:38;346199.00;1.15;597.33;88972.00;0.30;154.53;;;;;28.50;1.00;;;;;;1982875;41;3292;-90
2021/07/25 10:06:24;242931.00;0.81;419.79;57732.00;0.19;100.56;;;;;28.40;1.00;;;;;;2262331;61;1188;-89
2021/07/25 10:09:09;941300.00;3.14;1628.78;141835.00;0.47;245.73;;;;;28.40;1.00;;;;;;2260633;61;997;-90
2021/07/25 10:11:37;1102354.00;3.67;1914.63;178843.00;0.60;309.50;;;;;28.20;1.00;;;;;;2260583;61;1141;-90
2021/07/25 10:14:04;336248.00;1.12;580.22;0.00;0.00;0.62;;;;;28.30;1.00;;;;;;2258761;61;1396;-89
2021/07/25 10:16:31;270121.00;0.90;466.55;0.00;0.00;0.62;;;;;28.50;1.00;;;;;;2256555;61;1915;-90
2021/07/25 10:18:59;490531.00;1.64;845.52;71309.00;0.24;124.02;;;;;28.60;1.00;;;;;;2256299;61;936;-88
2021/07/25 10:21:30;422777.00;1.41;728.97;53313.00;0.18;92.92;;;;;28.60;1.00;;;;;;2256380;61;948;-89
2021/07/25 10:23:59;396733.00;1.32;684.19;64080.00;0.21;111.53;;;;;28.50;1.00;;;;;;2256521;61;1376;-89
2021/07/25 10:26:26;640684.00;2.14;1104.52;183751.00;0.61;317.95;;;;;28.20;1.00;;;;;;2256669;61;1047;-89
2021/07/25 10:28:55;379023.00;1.26;653.75;129720.00;0.43;224.85;;;;;28.10;1.00;;;;;;2256538;61;1564;-89
2021/07/25 10:31:23;394829.00;1.32;680.92;80970.00;0.27;140.71;;;;;28.00;1.00;;;;;;2256560;61;1074;-89
2021/07/25 10:33:51;340366.00;1.13;587.30;62341.00;0.21;108.52;;;;;28.00;1.00;;;;;;2256525;61;1324;-91
2021/07/25 10:36:18;385688.00;1.29;665.20;64454.00;0.21;112.18;;;;;27.80;1.00;;;;;;2256499;61;1076;-88
2021/07/25 10:38:48;296642.00;0.99;512.15;64993.00;0.22;113.11;;;;;27.80;1.00;;;;;;2256424;61;1936;-88
2021/07/25 10:41:20;368010.00;1.23;634.82;59535.00;0.20;103.67;;;;;27.60;1.00;;;;;;2256417;61;1118;-89
2021/07/25 10:43:47;1039946.00;3.47;1803.35;166307.00;0.55;287.91;;;;;27.40;1.00;;;;;;2256337;61;1346;-89
2021/07/25 10:46:22;749800.00;2.50;1293.71;108003.00;0.36;187.38;;;;;27.10;1.00;;;;;;2256413;61;1677;-89
2021/07/25 10:49:20;872067.00;2.91;1507.11;104556.00;0.35;181.44;;;;;27.00;1.00;;;;;;2256436;61;1201;-89
2021/07/25 10:52:01;57862.00;0.19;100.78;0.00;0.00;0.62;;;;;27.30;1.00;;;;;;2248019;61;1139;-89
2021/07/25 10:54:46;0.00;0.00;0.62;0.00;0.00;0.62;;;;;27.20;1.00;;;;;;2248015;61;1423;-90
2021/07/25 10:57:14;111928.00;0.37;194.16;0.00;0.00;0.62;;;;;27.70;1.00;;;;;;2247999;61;1989;-89
2021/07/25 10:59:46;971969.00;3.24;1682.89;52669.00;0.18;91.80;;;;;27.90;1.00;;;;;;2247601;61;1121;-89
2021/07/25 11:02:17;312157.00;1.04;538.82;0.00;0.00;0.62;;;;;27.80;1.00;;;;;;2248027;61;939;-90
2021/07/25 11:05:05;115303.00;0.38;199.98;0.00;0.00;0.62;;;;;27.70;1.00;;;;;;2247942;61;1438;-89
2021/07/25 11:07:39;290123.00;0.97;500.94;0.00;0.00;0.62;;;;;27.50;1.00;;;;;;2248012;61;1182;-89
2021/07/25 11:10:10;259774.00;0.87;448.76;0.00;0.00;0.62;;;;;27.50;1.00;;;;;;2248008;61;1035;-89
2021/07/25 11:13:17;849239.00;2.83;1467.14;152643.00;0.51;264.36;;;;;27.60;1.00;;;;;;2248034;61;1173;-89
2021/07/25 11:15:44;677307.00;2.26;1167.91;148253.00;0.49;256.80;;;;;27.50;1.00;;;;;;2247990;61;1119;-89
2021/07/25 11:18:12;223162.00;0.74;385.78;0.00;0.00;0.62;;;;;27.70;1.00;;;;;;2247967;61;2003;-90
2021/07/25 11:20:50;160489.00;0.53;277.88;0.00;0.00;0.62;;;;;28.00;1.00;;;;;;2247787;61;1003;-90
2021/07/25 11:23:35;288381.00;0.96;497.95;0.00;0.00;0.62;;;;;27.80;1.00;;;;;;2241433;61;1352;-89
2021/07/25 11:26:35;59483.00;0.20;103.58;0.00;0.00;0.62;;;;;27.70;1.00;;;;;;2252974;61;1064;-90
2021/07/25 11:29:06;0.00;0.00;0.62;0.00;0.00;0.62;;;;;27.80;1.00;;;;;;2256374;61;1038;-89
2021/07/25 11:31:38;54747.00;0.18;95.39;0.00;0.00;0.62;;;;;28.00;1.00;;;;;;2256578;61;1073;-89
2021/07/25 11:34:07;86415.00;0.29;150.12;0.00;0.00;0.62;;;;;28.00;1.00;;;;;;2256986;61;1939;-89
2021/07/25 11:36:35;116181.00;0.39;201.49;0.00;0.00;0.62;;;;;28.00;1.00;;;;;;2257027;61;1201;-89
2021/07/25 11:39:03;121887.00;0.41;211.34;0.00;0.00;0.62;;;;;27.70;1.00;;;;;;2256986;61;2011;-89
2021/07/25 11:41:32;217432.00;0.72;375.92;0.00;0.00;0.62;;;;;27.80;1.00;;;;;;2256979;61;1106;-90
2021/07/25 11:44:01;345670.00;1.15;596.42;80574.00;0.27;140.03;;;;;27.70;1.00;;;;;;2256867;61;1366;-89
2021/07/25 11:46:38;130345.00;0.43;225.92;0.00;0.00;0.62;;;;;27.50;1.00;;;;;;2257010;61;949;-89
2021/07/25 11:49:13;331352.00;1.10;571.81;6773.00;0.02;12.36;;;;;27.50;1.00;;;;;;2256970;61;1114;-91
2021/07/25 11:51:44;443343.00;1.48;764.33;68426.00;0.23;119.04;;;;;27.90;1.00;;;;;;2256939;61;1495;-88
2021/07/25 11:54:12;32436.00;0.11;56.80;0.00;0.00;0.62;;;;;27.90;1.00;;;;;;2256967;61;1432;-90
2021/07/25 11:56:55;184894.00;0.62;319.92;0.00;0.00;0.62;;;;;27.70;1.00;;;;;;2253249;61;994;-90
2021/07/25 11:59:24;22909.00;0.08;40.31;0.00;0.00;0.62;;;;;27.30;1.00;;;;;;2257050;61;1029;-90
2021/07/25 12:01:51;25507.00;0.09;44.81;0.00;0.00;0.62;;;;;27.20;1.00;;;;;;2256865;61;1221;-89
2021/07/25 12:04:20;0.00;0.00;0.62;0.00;0.00;0.62;;;;;27.10;1.00;;;;;;2256905;61;1401;-89
2021/07/25 12:06:56;65735.00;0.22;114.39;0.00;0.00;0.62;;;;;26.90;1.00;;;;;;2256969;61;983;-90
2021/07/25 12:09:23;22123.00;0.07;38.95;0.00;0.00;0.62;;;;;26.60;1.00;;;;;;2253169;61;955;-89
2021/07/25 12:11:59;0.00;0.00;0.62;0.00;0.00;0.62;;;;;27.10;1.00;;;;;;2257005;61;937;-90
2021/07/25 12:14:28;0.00;0.00;0.62;0.00;0.00;0.62;;;;;26.80;1.00;;;;;;2257003;61;1435;-90
2021/07/25 12:16:56;0.00;0.00;0.62;0.00;0.00;0.62;;;;;26.80;1.00;;;;;;2253047;61;1993;-89
2021/07/25 12:19:24;149.00;0.00;0.88;0.00;0.00;0.62;;;;;26.80;1.00;;;;;;2256878;61;1016;-90
2021/07/25 12:22:10;0.00;0.00;0.62;0.00;0.00;0.62;;;;;27.00;1.00;;;;;;2256779;61;1608;-90
2021/07/25 12:27:33;341137.00;1.14;588.63;0.00;0.00;0.62;;;;;26.90;1.00;;;;;;2256304;61;1499;-90
2021/07/25 12:30:16;338110.00;1.13;583.43;60770.00;0.20;105.81;;;;;27.10;1.00;;;;;;2256757;61;1023;-90
2021/07/25 12:36:15;328386.00;1.09;566.71;0.00;0.00;0.62;;;;;27.20;1.00;;;;;;2240361;62;1080;-89
2021/07/25 12:38:52;335481.00;1.12;578.91;0.00;0.00;0.62;;;;;27.20;1.00;;;;;;2224548;62;1995;-90
2021/07/25 12:41:43;33242.00;0.11;58.19;0.00;0.00;0.62;;;;;27.10;1.00;;;;;;2220797;62;1092;-90
2021/07/25 12:44:25;247774.00;0.83;428.12;0.00;0.00;0.62;;;;;27.00;1.00;;;;;;2216664;62;1461;-89
2021/07/25 12:46:53;449104.00;1.50;774.24;77763.00;0.26;135.17;;;;;27.30;1.00;;;;;;2216512;62;1210;-88
2021/07/25 12:49:20;340289.00;1.13;587.17;6938.00;0.02;12.64;;;;;27.20;1.00;;;;;;2217073;62;1202;-90
2021/07/25 12:51:47;204243.00;0.68;353.23;0.00;0.00;0.62;;;;;27.30;1.00;;;;;;2224090;62;1002;-88
2021/07/25 12:54:18;709117.00;2.36;1223.05;114020.00;0.38;197.77;;;;;27.30;1.00;;;;;;2224717;62;1351;-88
2021/07/25 12:56:45;1989610.00;6.63;3603.01;292278.00;0.97;504.65;;;;;27.40;1.00;;;;;;2224672;62;1586;-89
2021/07/25 12:59:14;345544.00;1.15;596.20;61913.00;0.21;107.78;;;;;27.90;1.00;;;;;;2222949;62;1933;-88
2021/07/25 13:04:25;39970.00;0.13;69.84;0.00;0.00;0.62;;;;;28.00;1.00;;;;;;2240243;62;1430;-90
2021/07/25 13:06:52;118923.00;0.40;206.22;0.00;0.00;0.62;;;;;28.00;1.00;;;;;;2240199;62;1605;-91
2021/07/25 13:09:20;618476.00;2.06;1066.13;71268.00;0.24;123.95;;;;;28.30;1.00;;;;;;2240294;62;1740;-89
2021/07/25 13:11:49;1293657.00;4.31;2260.50;151147.00;0.50;261.78;;;;;28.20;1.00;;;;;;2240456;62;1137;-90
2021/07/25 13:14:19;797278.00;2.66;1376.38;71723.00;0.24;124.74;;;;;28.30;1.00;;;;;;2248159;61;1710;-90
2021/07/25 13:16:48;202709.00;0.68;350.59;65473.00;0.22;113.94;;;;;27.90;1.00;;;;;;2248179;61;1130;-90
2021/07/25 13:19:16;104909.00;0.35;182.04;0.00;0.00;0.62;;;;;27.40;1.00;;;;;;2248121;61;1939;-91
2021/07/25 13:21:44;231046.00;0.77;399.35;0.00;0.00;0.62;;;;;27.30;1.00;;;;;;2248133;61;1061;-90
2021/07/25 13:24:12;948563.00;3.16;1641.58;222581.00;0.74;384.78;;;;;27.20;1.00;;;;;;2248199;61;1447;-89
2021/07/25 13:26:40;223552.00;0.75;386.46;0.00;0.00;0.62;;;;;27.10;1.00;;;;;;2248171;61;1039;-89
2021/07/25 13:29:07;0.00;0.00;0.62;0.00;0.00;0.62;;;;;27.40;1.00;;;;;;2248110;61;944;-90
2021/07/25 13:31:34;3804.00;0.01;7.21;0.00;0.00;0.62;;;;;27.60;1.00;;;;;;2248212;61;1109;-91
2021/07/25 13:34:01;296559.00;0.99;512.00;67993.00;0.23;118.29;;;;;27.70;1.00;;;;;;2248135;61;1305;-90
2021/07/25 13:36:28;83389.00;0.28;144.89;0.00;0.00;0.62;;;;;27.50;1.00;;;;;;2248088;61;1003;-91
2021/07/25 13:38:56;60551.00;0.20;105.43;0.00;0.00;0.62;;;;;27.50;1.00;;;;;;2240160;62;1924;-91
2021/07/25 13:41:23;3896.00;0.01;7.37;0.00;0.00;0.62;;;;;27.50;1.00;;;;;;2239574;62;1044;-91
2021/07/25 13:43:51;177343.00;0.59;306.91;0.00;0.00;0.62;;;;;27.10;1.00;;;;;;2244141;62;1299;-90
2021/07/25 13:46:23;0.00;0.00;0.62;0.00;0.00;0.62;;;;;27.30;1.00;;;;;;2244193;62;1098;-90
2021/07/25 13:48:50;228638.00;0.76;395.21;30830.00;0.10;54.02;;;;;27.40;1.00;;;;;;2244132;62;1011;-89
2021/07/25 13:51:19;0.00;0.00;0.62;0.00;0.00;0.62;;;;;27.30;1.00;;;;;;2237535;62;1105;-91
2021/07/25 13:53:54;75611.00;0.25;131.46;0.00;0.00;0.62;;;;;27.60;1.00;;;;;;2244029;62;1404;-90
2021/07/25 13:56:22;125412.00;0.42;217.42;0.00;0.00;0.62;;;;;28.30;1.00;;;;;;2245880;61;993;-92
2021/07/25 13:58:49;16316.00;0.05;28.89;0.00;0.00;0.62;;;;;28.20;1.00;;;;;;2240951;61;1928;-90
2021/07/25 14:01:17;67943.00;0.23;118.21;0.00;0.00;0.62;;;;;27.90;1.00;;;;;;2236781;61;1066;-91
2021/07/25 14:03:44;132624.00;0.44;229.85;0.00;0.00;0.62;;;;;28.00;1.00;;;;;;2248031;61;1358;-91
2021/07/25 14:06:11;24814.00;0.08;43.61;0.00;0.00;0.62;;;;;28.30;1.00;;;;;;2248007;61;1128;-89
2021/07/25 14:08:38;184044.00;0.61;318.45;0.00;0.00;0.62;;;;;28.50;1.00;;;;;;2248032;61;1596;-90
2021/07/25 14:11:10;35882.00;0.12;62.76;0.00;0.00;0.62;;;;;28.20;1.00;;;;;;2248035;61;1118;-91
2021/07/25 14:13:39;0.00;0.00;0.62;0.00;0.00;0.62;;;;;28.60;1.00;;;;;;2244687;61;1327;-91
2021/07/25 14:16:06;66367.00;0.22;115.48;0.00;0.00;0.62;;;;;28.40;1.00;;;;;;2242830;61;1031;-90
2021/07/25 14:18:33;10861.00;0.04;19.44;0.00;0.00;0.62;;;;;28.00;1.00;;;;;;2256430;61;1920;-90
2021/07/25 14:21:09;5117.00;0.02;9.49;0.00;0.00;0.62;;;;;28.00;1.00;;;;;;2256456;61;1064;-90
2021/07/25 14:23:36;220690.00;0.74;381.53;0.00;0.00;0.62;;;;;27.80;1.00;;;;;;2256420;61;1432;-90
2021/07/25 14:26:03;1594324.00;5.31;2821.90;239269.00;0.80;413.49;;;;;27.80;1.00;;;;;;2251922;61;972;-90
2021/07/25 14:28:30;1167080.00;3.89;2030.81;242151.00;0.81;418.45;;;;;28.10;1.00;;;;;;2251832;61;1622;-90
2021/07/25 14:31:00;171250.00;0.57;296.42;11399.00;0.04;20.37;;;;;28.30;1.00;;;;;;2252074;61;992;-89
2021/07/25 14:33:27;744535.00;2.48;1284.56;118565.00;0.40;205.61;;;;;28.20;1.00;;;;;;2251801;61;1516;-91
2021/07/25 14:35:54;1265607.00;4.22;2209.30;130133.00;0.43;225.56;;;;;28.40;1.00;;;;;;2251972;61;1004;-90
2021/07/25 14:38:21;269912.00;0.90;466.19;59946.00;0.20;104.38;;;;;28.30;1.00;;;;;;2251835;61;2005;-90
2021/07/25 14:40:48;173250.00;0.58;299.86;24425.00;0.08;42.93;;;;;28.40;1.00;;;;;;2251955;61;1006;-90
2021/07/25 14:43:15;171119.00;0.57;296.19;0.00;0.00;0.62;;;;;28.00;1.00;;;;;;2252469;61;1280;-89
2021/07/25 14:45:44;53917.00;0.18;93.96;0.00;0.00;0.62;;;;;28.30;1.00;;;;;;2256376;61;1027;-90
2021/07/25 14:48:13;182884.00;0.61;316.46;0.00;0.00;0.62;;;;;28.60;1.00;;;;;;2256357;61;1154;-90
2021/07/25 14:50:40;46916.00;0.16;81.85;0.00;0.00;0.62;;;;;28.50;1.00;;;;;;2256356;61;1131;-90
2021/07/25 14:53:08;57989.00;0.19;101.00;0.00;0.00;0.62;;;;;28.70;1.00;;;;;;2256319;61;1309;-91
2021/07/25 14:55:35;74310.00;0.25;129.21;0.00;0.00;0.62;;;;;28.70;1.00;;;;;;2256359;61;998;-90
2021/07/25 14:58:02;110520.00;0.37;191.73;27792.00;0.09;48.76;;;;;28.80;1.00;;;;;;2256344;61;1998;-89
2021/07/25 15:00:29;12479.00;0.04;22.24;0.00;0.00;0.62;;;;;28.90;1.00;;;;;;2256332;61;944;-91
2021/07/25 15:02:56;28712.00;0.10;50.35;0.00;0.00;0.62;;;;;29.10;1.00;;;;;;2256325;61;1109;-90
2021/07/25 15:05:24;0.00;0.00;0.62;0.00;0.00;0.62;;;;;29.40;1.00;;;;;;2256086;61;1247;-90
2021/07/25 15:07:51;211039.00;0.70;364.92;52267.00;0.17;91.11;;;;;29.20;1.00;;;;;;2256279;61;1067;-90
2021/07/25 15:10:18;24060.00;0.08;42.30;0.00;0.00;0.62;;;;;29.30;1.00;;;;;;2256318;61;2105;-89
2021/07/25 15:12:45;0.00;0.00;0.62;0.00;0.00;0.62;;;;;29.20;1.00;;;;;;2256358;61;1141;-90
2021/07/25 15:15:12;130699.00;0.44;226.53;0.00;0.00;0.62;;;;;29.20;1.00;;;;;;2256370;61;1313;-89
2021/07/25 15:17:39;0.00;0.00;0.62;0.00;0.00;0.62;;;;;29.20;1.00;;;;;;2256373;61;1051;-89
2021/07/25 15:20:07;0.00;0.00;0.62;0.00;0.00;0.62;;;;;29.00;1.00;;;;;;2256373;61;2002;-90
2021/07/25 15:22:36;0.00;0.00;0.62;0.00;0.00;0.62;;;;;29.00;1.00;;;;;;2256331;61;1553;-89
2021/07/25 15:25:03;7287.00;0.02;13.25;0.00;0.00;0.62;;;;;28.70;1.00;;;;;;2256315;61;1277;-90
2021/07/25 15:27:30;84806.00;0.28;147.34;0.00;0.00;0.62;;;;;28.80;1.00;;;;;;2256374;61;1056;-90
2021/07/25 15:29:57;9040.00;0.03;16.29;0.00;0.00;0.62;;;;;29.00;1.00;;;;;;2256359;61;1930;-89
2021/07/25 15:32:23;288781.00;0.96;498.63;15312.00;0.05;27.15;;;;;29.00;1.00;;;;;;2256461;61;1107;-90
2021/07/25 15:34:50;465730.00;1.55;802.84;31802.00;0.11;55.70;;;;;29.00;1.00;;;;;;2256363;61;1388;-89
2021/07/25 15:37:17;152211.00;0.51;263.62;0.00;0.00;0.62;;;;;29.00;1.00;;;;;;2256454;61;941;-91
2021/07/25 15:39:45;120202.00;0.40;208.43;0.00;0.00;0.62;;;;;28.80;1.00;;;;;;2256425;61;1987;-90
2021/07/25 15:42:12;196732.00;0.66;340.30;33017.00;0.11;57.80;;;;;28.60;1.00;;;;;;2256485;61;928;-90
2021/07/25 15:44:39;932107.00;3.11;1612.58;72945.00;0.24;126.85;;;;;28.50;1.00;;;;;;2256487;61;1302;-89
2021/07/25 15:47:06;796322.00;2.65;1374.71;91754.00;0.31;159.34;;;;;27.80;1.00;;;;;;2256433;61;1154;-90
2021/07/25 15:49:34;656176.00;2.19;1131.32;151146.00;0.50;261.78;;;;;27.50;1.00;;;;;;2256417;61;1104;-90
2021/07/25 15:52:02;217730.00;0.73;376.44;68508.00;0.23;119.18;;;;;27.50;1.00;;;;;;2259322;61;1003;-89
2021/07/25 15:54:29;231735.00;0.77;400.53;44384.00;0.15;77.47;;;;;27.30;1.00;;;;;;2256228;61;1556;-90
2021/07/25 15:56:57;169038.00;0.56;292.61;67846.00;0.23;118.04;;;;;27.50;1.00;;;;;;2259262;61;1023;-90
2021/07/25 15:59:24;66485.00;0.22;115.69;0.00;0.00;0.62;;;;;27.60;1.00;;;;;;2256326;61;1986;-90
2021/07/25 16:01:51;10880.00;0.04;19.47;0.00;0.00;0.62;;;;;27.10;1.00;;;;;;2252662;61;1042;-92
2021/07/25 21:00:55;46577.00;0.16;81.27;0.00;0.00;0.62;;;;;24.70;1.00;;;;;;2259353;61;933;-88
2021/07/25 21:08:30;76287.00;0.25;132.62;0.00;0.00;0.62;;;;;24.30;1.00;;;;;;2259386;61;887;-88
2021/07/25 21:10:59;0.00;0.00;0.62;0.00;0.00;0.62;;;;;24.20;1.00;;;;;;2257428;61;931;-88
2021/07/25 21:13:26;0.00;0.00;0.62;0.00;0.00;0.62;;;;;23.90;1.00;;;;;;2257541;61;921;-89